createdAt,value
2023-02-22T00:02:14.538Z,2243.64697
2023-02-22T00:17:16.809Z,1879.28467
2023-02-22T00:32:19.358Z,1341.41675
2023-02-22T00:47:21.713Z,842.58752
2023-02-22T01:02:23.969Z,418.58273
2023-02-22T01:17:26.623Z,139.88905
2023-02-22T01:32:28.884Z,28.19469
2023-02-22T01:47:31.232Z,2.16882
2023-02-22T02:02:33.455Z,1.08441
2023-02-22T02:17:35.716Z,1.08441
2023-02-22T02:32:37.969Z,1.08441
2023-02-22T02:47:40.329Z,1.08441
2023-02-22T03:02:42.792Z,1.08441
2023-02-22T03:17:45.073Z,1.08441
2023-02-22T03:32:47.273Z,1.08441
2023-02-22T03:47:49.478Z,1.08441
2023-02-22T04:02:51.811Z,1.08441
2023-02-22T04:17:54.079Z,1.08441
2023-02-22T04:32:56.536Z,1.08441
2023-02-22T04:47:58.748Z,1.08441
2023-02-22T05:03:01.000Z,1.08441
2023-02-22T05:18:03.193Z,1.08441
2023-02-22T05:33:05.421Z,1.08441
2023-02-22T05:48:07.685Z,1.08441
2023-02-22T06:03:09.943Z,0
2023-02-22T06:18:12.192Z,0
2023-02-22T06:33:14.670Z,0
2023-02-22T06:48:16.906Z,0
2023-02-22T07:03:19.425Z,0
2023-02-22T07:18:21.893Z,0
2023-02-22T07:33:24.257Z,0
2023-02-22T07:48:26.643Z,0
2023-02-22T08:03:28.974Z,0
2023-02-22T08:18:31.274Z,0
2023-02-22T08:33:33.629Z,0
2023-02-22T08:48:35.981Z,0
2023-02-22T09:03:38.270Z,0
2023-02-22T09:18:44.239Z,0
2023-02-22T09:33:47.539Z,0
2023-02-22T09:48:49.859Z,0
2023-02-22T10:03:52.140Z,0
2023-02-22T10:18:54.416Z,0
2023-02-22T10:33:56.667Z,0
2023-02-22T10:48:58.915Z,0
2023-02-22T11:04:01.356Z,0
2023-02-22T11:19:03.673Z,0
2023-02-22T11:34:05.907Z,0
2023-02-22T11:49:08.160Z,0
2023-02-22T12:04:10.762Z,0
2023-02-22T12:19:13.279Z,0
2023-02-22T12:34:15.579Z,0
2023-02-22T12:49:17.906Z,0
2023-02-22T13:04:21.533Z,0
2023-02-22T13:19:23.863Z,0
2023-02-22T13:34:26.272Z,0
2023-02-22T13:49:28.476Z,0
2023-02-22T14:04:30.764Z,0
2023-02-22T14:19:33.024Z,2.16882
2023-02-22T14:34:35.300Z,45.54527
2023-02-22T14:49:37.508Z,266.76517
2023-02-22T15:04:39.770Z,691.85437
2023-02-22T15:19:42.085Z,1293.70264
2023-02-22T15:34:44.351Z,2137.37451
2023-02-22T15:49:46.563Z,3077.55908
2023-02-22T16:04:59.278Z,4093.65259
2023-02-22T16:20:02.376Z,4810.44824
2023-02-22T16:35:04.659Z,5490.37402
2023-02-22T16:50:06.914Z,6859.98584
2023-02-22T17:05:09.209Z,8673.12109
2023-02-22T17:20:11.510Z,10203.22559
2023-02-22T17:35:13.847Z,11230.16309
2023-02-22T17:50:16.072Z,15205.61426
2023-02-22T18:05:18.339Z,17782.17578
2023-02-22T18:20:20.582Z,20536.58008
2023-02-22T18:35:22.818Z,22873.48633
2023-02-22T18:50:25.186Z,28021.1875
2023-02-22T19:05:27.543Z,32347.98828
2023-02-22T19:20:29.768Z,19433.73438
2023-02-22T19:35:32.007Z,18652.95898
2023-02-22T19:50:34.324Z,18313.53711
2023-02-22T20:05:36.529Z,15521.17871
2023-02-22T20:20:39.152Z,15242.48438
2023-02-22T20:35:41.388Z,15593.83398
2023-02-22T20:50:43.674Z,15254.41309
2023-02-22T21:05:45.932Z,13946.61328
2023-02-22T21:20:48.388Z,12513.02148
2023-02-22T21:35:50.605Z,12189.86719
2023-02-22T21:50:52.855Z,11669.34961
2023-02-22T22:05:55.085Z,10863.63184
2023-02-22T22:20:58.014Z,10644.58105
2023-02-22T22:36:00.267Z,11136.90332
2023-02-22T22:51:02.673Z,10016.70703
2023-02-22T23:06:05.157Z,8465.99902
2023-02-22T23:21:07.350Z,7601.72314
2023-02-22T23:36:09.744Z,6713.59033
2023-02-22T23:51:12.016Z,5126.01221
